ムルマンスク の空港の天気 - METARとTAF

ムルマンスク空港 ( ULMM / MMK ) - ロシア ムルマンスク
飛行場実況気象(Metar)
観測時間07/29 05:00 MSK (07/29 02:00 UTC)
風向・風速東 1m/s
視程10km以上
天気現象
全天の8割程度の雲 雲底高度 270m
気温7℃
湿度93%
気圧1008hPa
METARULMM 290200Z 09001MPS 9999 BKN009 07/06 Q1008 R31/090070 NOSIG RMK OBST OBSC QFE749
過去の天気等 Google飛行場航空写真 Wunderground天気予報

過去48時間のMETAR

飛行場予報(TAF)
発表時間: 7/29 04:57 MSK (7/29 01:57 UTC)
予報対象時間: 29日6時 MSK ~ 30日6時 MSK
風向・風速北東 3m/s
視程10km以上
全天の8割程度の雲 雲底高度 490m
29日14時 MSK ~ 30日2時 MSK に一時的に
風向・風速東北東 3m/s 瞬間風速 8m/s
天気現象弱いしゅう雨
全天の8割程度の積乱雲 雲底高度 490m
30日2時 MSK ~ 30日6時 MSK に一時的に
視程5000m
天気現象もや
全天を覆う雲 雲底高度 180m
TAF ULMM 290157Z 2903/3003 04003MPS 9999 BKN016
TEMPO 2911/2923 07003G08MPS -SHRA BKN016CB
TEMPO 2923/3003 5000 BR OVC006